Time;durP1;ratioP1;P1;durP2;ratioP2;P2;SDS_P1;SDS_P2;PMS_P1;PMS_P2;Temp;Humidity;BMP_temperature;BMP_pressure;BME280_temperature;BME280_humidity;BME280_pressure;Samples;Min_cycle;Max_cycle;Signal;HPM_P1;HPM_P2
2023/06/24 00:00:46;;;;;;;5.43;3.63;;;14.90;99.90;;;;;;477805;248;28832;-80
2023/06/24 00:02:47;;;;;;;6.70;4.70;;;14.90;99.90;;;;;;477789;248;29203;-79
2023/06/24 00:04:49;;;;;;;5.10;3.27;;;14.80;99.90;;;;;;477810;248;29228;-79
2023/06/24 00:06:52;;;;;;;3.60;3.30;;;14.70;99.90;;;;;;477787;248;29217;-80
2023/06/24 00:08:51;;;;;;;3.93;3.57;;;14.70;99.90;;;;;;477709;249;28841;-79
2023/06/24 00:10:52;;;;;;;3.63;3.33;;;14.70;99.90;;;;;;477813;248;28861;-80
2023/06/24 00:12:54;;;;;;;4.40;3.93;;;14.70;99.90;;;;;;477805;248;28762;-79
2023/06/24 00:14:55;;;;;;;3.97;3.57;;;14.60;99.90;;;;;;477806;248;28775;-79
2023/06/24 00:16:56;;;;;;;3.80;3.50;;;14.70;99.90;;;;;;477835;249;28818;-80
2023/06/24 00:18:58;;;;;;;5.03;4.13;;;14.70;99.90;;;;;;477798;248;28754;-79
2023/06/24 00:20:59;;;;;;;4.77;3.80;;;14.70;99.90;;;;;;477788;248;28786;-79
2023/06/24 00:23:00;;;;;;;4.00;3.60;;;14.60;99.90;;;;;;477808;249;28759;-79
2023/06/24 00:25:01;;;;;;;3.80;3.50;;;14.60;99.90;;;;;;477950;249;28850;-79
2023/06/24 00:27:02;;;;;;;3.77;3.47;;;14.60;99.90;;;;;;477956;248;29251;-79
2023/06/24 00:29:04;;;;;;;4.23;3.70;;;14.60;99.90;;;;;;477952;248;29262;-79
2023/06/24 00:31:05;;;;;;;5.30;3.87;;;14.60;99.90;;;;;;477946;248;29323;-79
2023/06/24 00:33:09;;;;;;;3.83;3.47;;;14.60;99.90;;;;;;477935;248;28759;-79
2023/06/24 00:35:07;;;;;;;4.07;3.40;;;14.60;99.90;;;;;;477697;249;28832;-79
2023/06/24 00:37:09;;;;;;;3.83;3.53;;;14.40;99.90;;;;;;477822;248;28750;-79
2023/06/24 00:39:10;;;;;;;4.30;3.90;;;14.40;99.90;;;;;;477911;248;28746;-80
2023/06/24 00:41:11;;;;;;;7.93;3.83;;;14.30;99.90;;;;;;477906;248;28748;-79
2023/06/24 00:43:12;;;;;;;3.70;3.40;;;14.40;99.90;;;;;;477919;248;28750;-79
2023/06/24 00:45:14;;;;;;;4.07;3.47;;;14.30;99.90;;;;;;477918;246;28540;-79
2023/06/24 00:47:15;;;;;;;3.83;3.37;;;14.30;99.90;;;;;;477897;248;28755;-80
2023/06/24 00:49:16;;;;;;;4.20;3.80;;;14.30;99.90;;;;;;477803;248;28842;-80
2023/06/24 00:51:20;;;;;;;4.27;3.20;;;14.40;99.90;;;;;;477785;248;28812;-80
2023/06/24 00:53:19;;;;;;;4.93;3.50;;;14.40;99.90;;;;;;477623;249;29215;-79
2023/06/24 00:55:23;;;;;;;6.20;3.57;;;14.40;99.90;;;;;;477925;248;28798;-79
2023/06/24 00:57:25;;;;;;;6.03;4.10;;;14.40;99.90;;;;;;477922;248;28749;-79
2023/06/24 00:59:28;;;;;;;4.40;3.50;;;14.40;99.90;;;;;;477939;249;28756;-79
2023/06/24 01:01:27;;;;;;;3.70;3.40;;;14.30;99.90;;;;;;477783;248;28837;-79
2023/06/24 01:03:28;;;;;;;4.80;4.00;;;14.30;99.90;;;;;;477981;248;28758;-79
2023/06/24 01:05:29;;;;;;;3.77;3.47;;;14.30;99.90;;;;;;478011;248;28761;-80
2023/06/24 01:07:30;;;;;;;3.93;3.53;;;14.30;99.90;;;;;;478032;248;28761;-80
2023/06/24 01:09:32;;;;;;;4.10;3.67;;;14.30;99.90;;;;;;477829;248;29313;-80
2023/06/24 01:11:33;;;;;;;3.90;3.60;;;14.30;99.90;;;;;;477793;248;29247;-79
2023/06/24 01:13:34;;;;;;;4.23;3.30;;;14.20;99.90;;;;;;477843;248;29283;-80
2023/06/24 01:15:35;;;;;;;4.37;3.43;;;14.20;99.90;;;;;;477970;248;28975;-79
2023/06/24 01:17:37;;;;;;;3.83;3.53;;;14.20;99.90;;;;;;477971;248;28818;-79
2023/06/24 01:19:38;;;;;;;3.70;3.40;;;14.20;99.90;;;;;;477894;248;28815;-79
2023/06/24 01:21:39;;;;;;;4.97;3.77;;;14.20;99.90;;;;;;477859;248;28822;-79
2023/06/24 01:23:40;;;;;;;3.77;3.40;;;14.20;99.90;;;;;;477889;248;28754;-79
2023/06/24 01:25:42;;;;;;;3.93;3.53;;;14.20;99.90;;;;;;477889;248;28747;-79
2023/06/24 01:27:44;;;;;;;4.03;3.63;;;14.20;99.90;;;;;;477891;248;28766;-80
2023/06/24 01:29:44;;;;;;;4.07;3.30;;;14.20;99.90;;;;;;477760;249;28758;-80
2023/06/24 01:31:45;;;;;;;3.70;3.40;;;14.10;99.90;;;;;;477830;248;28844;-80
2023/06/24 01:33:50;;;;;;;3.93;3.63;;;14.10;99.90;;;;;;477825;248;29302;-80
2023/06/24 01:35:48;;;;;;;5.50;3.93;;;14.00;99.90;;;;;;477756;249;29216;-80
2023/06/24 01:37:51;;;;;;;3.70;3.40;;;14.00;99.90;;;;;;477787;248;29237;-79
2023/06/24 01:39:50;;;;;;;3.97;3.33;;;14.00;99.90;;;;;;477820;249;29255;-80
2023/06/24 01:41:52;;;;;;;4.30;3.90;;;14.00;99.90;;;;;;477846;248;28771;-79
2023/06/24 01:43:53;;;;;;;4.13;3.73;;;14.00;99.90;;;;;;477855;248;28762;-79
2023/06/24 01:45:54;;;;;;;4.77;4.30;;;14.10;99.90;;;;;;477904;248;28813;-80
2023/06/24 01:47:55;;;;;;;4.17;3.87;;;14.00;99.90;;;;;;477868;248;28833;-79
2023/06/24 01:49:57;;;;;;;4.00;3.70;;;14.00;99.90;;;;;;477893;248;28826;-80
2023/06/24 01:51:58;;;;;;;3.73;3.43;;;14.00;99.90;;;;;;477889;248;28843;-80
2023/06/24 01:53:59;;;;;;;7.83;3.40;;;14.00;99.90;;;;;;477856;248;28746;-79
2023/06/24 01:56:00;;;;;;;4.23;3.83;;;14.00;99.90;;;;;;477834;248;28816;-79
2023/06/24 01:58:02;;;;;;;4.20;3.80;;;14.10;99.90;;;;;;477821;249;28841;-79
2023/06/24 02:00:06;;;;;;;4.53;4.13;;;14.00;99.90;;;;;;477903;247;29240;-79
2023/06/24 02:02:04;;;;;;;3.83;3.53;;;14.00;99.90;;;;;;477771;249;29223;-79
2023/06/24 02:04:06;;;;;;;4.57;4.17;;;14.00;99.90;;;;;;477916;248;29316;-79
2023/06/24 02:06:09;;;;;;;4.60;4.20;;;14.00;99.90;;;;;;477910;248;28835;-79
2023/06/24 02:08:08;;;;;;;4.03;3.50;;;14.00;99.90;;;;;;477789;246;28540;-80
2023/06/24 02:10:09;;;;;;;4.30;3.90;;;13.90;99.90;;;;;;477791;248;28746;-80
2023/06/24 02:12:11;;;;;;;4.83;4.40;;;13.90;99.90;;;;;;477785;248;28826;-80
2023/06/24 02:14:12;;;;;;;4.40;4.00;;;13.90;99.90;;;;;;477880;248;28746;-80
2023/06/24 02:16:13;;;;;;;4.53;4.13;;;13.90;99.90;;;;;;477905;248;28765;-80
2023/06/24 02:18:15;;;;;;;4.63;4.23;;;13.80;99.90;;;;;;477922;248;28860;-79
2023/06/24 02:20:16;;;;;;;4.67;4.10;;;13.80;99.90;;;;;;477882;248;28750;-80
2023/06/24 02:22:17;;;;;;;5.30;4.00;;;13.80;99.90;;;;;;477887;248;28435;-79
2023/06/24 02:24:18;;;;;;;4.70;4.30;;;13.70;99.90;;;;;;477923;248;28919;-79
2023/06/24 02:26:19;;;;;;;4.27;3.87;;;13.60;99.90;;;;;;477918;246;29235;-80
2023/06/24 02:28:21;;;;;;;4.50;3.93;;;13.70;99.90;;;;;;477915;248;28865;-79
2023/06/24 02:30:22;;;;;;;5.00;4.07;;;13.70;99.90;;;;;;477782;248;28901;-79
2023/06/24 02:32:23;;;;;;;5.10;4.10;;;13.60;99.90;;;;;;477789;248;28849;-80
2023/06/24 02:34:24;;;;;;;4.43;4.03;;;13.60;99.90;;;;;;477934;248;28837;-79
2023/06/24 02:36:26;;;;;;;4.77;3.83;;;13.50;99.90;;;;;;477957;248;28739;-80
2023/06/24 02:38:27;;;;;;;4.53;4.13;;;13.40;99.90;;;;;;477944;248;28338;-80
2023/06/24 02:40:28;;;;;;;4.70;4.30;;;13.40;99.90;;;;;;477912;248;28742;-80
2023/06/24 02:42:29;;;;;;;4.80;4.03;;;13.40;99.90;;;;;;477872;246;28532;-79
2023/06/24 02:44:31;;;;;;;5.10;4.60;;;13.40;99.90;;;;;;477887;248;28762;-79
2023/06/24 02:46:32;;;;;;;4.73;4.33;;;13.40;99.90;;;;;;477870;249;28825;-79
2023/06/24 02:48:33;;;;;;;4.93;4.53;;;13.40;99.90;;;;;;477879;248;28834;-80
2023/06/24 02:50:34;;;;;;;4.47;4.10;;;13.40;99.90;;;;;;477850;248;28908;-79
2023/06/24 02:52:37;;;;;;;4.87;4.37;;;13.40;99.90;;;;;;477851;247;29210;-79
2023/06/24 02:54:39;;;;;;;4.53;4.13;;;13.30;99.90;;;;;;477827;249;29335;-80
2023/06/24 02:56:41;;;;;;;5.40;4.90;;;13.30;99.90;;;;;;477768;249;28754;-79
2023/06/24 02:58:39;;;;;;;5.03;4.43;;;13.30;99.90;;;;;;477671;249;28766;-80
2023/06/24 03:00:41;;;;;;;5.27;4.40;;;13.30;99.90;;;;;;477858;248;28323;-79
2023/06/24 03:02:42;;;;;;;5.60;4.60;;;13.30;99.90;;;;;;477873;249;28430;-79
2023/06/24 03:04:43;;;;;;;3.97;3.67;;;13.30;99.90;;;;;;477800;248;28536;-80
2023/06/24 03:06:44;;;;;;;4.80;4.40;;;13.40;99.90;;;;;;477816;248;28514;-79
2023/06/24 03:08:46;;;;;;;6.07;4.07;;;13.40;99.90;;;;;;477886;248;28762;-79
2023/06/24 03:10:47;;;;;;;4.73;4.30;;;13.40;99.90;;;;;;477953;248;28217;-80
2023/06/24 03:12:48;;;;;;;5.20;4.70;;;13.40;99.90;;;;;;477960;248;28336;-80
2023/06/24 03:14:49;;;;;;;5.67;4.10;;;13.40;99.90;;;;;;477892;248;29369;-79
2023/06/24 03:16:51;;;;;;;4.90;4.40;;;13.50;99.90;;;;;;477863;248;28922;-79
2023/06/24 03:18:52;;;;;;;5.73;4.57;;;13.40;99.90;;;;;;477838;248;29313;-80
2023/06/24 03:20:53;;;;;;;4.90;4.37;;;13.50;99.90;;;;;;477825;248;29334;-80
2023/06/24 03:22:56;;;;;;;5.00;4.60;;;13.40;99.90;;;;;;477816;248;28449;-80
2023/06/24 03:24:56;;;;;;;4.80;4.33;;;13.40;99.90;;;;;;477824;249;28755;-80
2023/06/24 03:26:57;;;;;;;5.73;5.10;;;13.50;99.90;;;;;;477875;248;28844;-79
2023/06/24 03:28:58;;;;;;;4.73;4.20;;;13.40;99.90;;;;;;477877;248;28822;-79
2023/06/24 03:30:59;;;;;;;5.00;4.50;;;13.50;99.90;;;;;;477873;248;28750;-79
2023/06/24 03:33:01;;;;;;;7.23;4.53;;;13.50;99.90;;;;;;477836;248;28750;-78
2023/06/24 03:35:02;;;;;;;5.00;4.50;;;13.50;99.90;;;;;;477794;247;28543;-79
2023/06/24 03:37:04;;;;;;;5.40;5.00;;;13.50;99.90;;;;;;477814;248;28447;-79
2023/06/24 03:39:04;;;;;;;5.93;5.27;;;13.60;99.90;;;;;;477798;248;28750;-79
2023/06/24 03:41:06;;;;;;;6.43;5.20;;;13.60;99.90;;;;;;477791;248;28934;-80
2023/06/24 03:43:07;;;;;;;4.90;4.40;;;13.60;99.90;;;;;;477807;248;29226;-79
2023/06/24 03:45:08;;;;;;;5.43;4.93;;;13.50;99.90;;;;;;477815;249;29222;-79
2023/06/24 03:47:09;;;;;;;5.23;4.73;;;13.60;99.90;;;;;;477799;248;28753;-80
2023/06/24 03:49:11;;;;;;;4.93;4.53;;;13.60;99.90;;;;;;477809;248;28755;-80
2023/06/24 03:51:12;;;;;;;6.13;5.53;;;13.70;99.90;;;;;;477803;247;28769;-80
2023/06/24 03:53:13;;;;;;;6.83;5.27;;;13.70;99.90;;;;;;477800;248;28884;-79
2023/06/24 03:55:14;;;;;;;6.70;4.80;;;13.70;99.90;;;;;;477798;249;28747;-80
2023/06/24 03:57:16;;;;;;;5.23;4.70;;;13.70;99.90;;;;;;477803;248;28747;-80
2023/06/24 03:59:17;;;;;;;5.07;4.60;;;13.80;99.90;;;;;;477802;248;28532;-79
2023/06/24 04:01:19;;;;;;;5.40;4.90;;;13.80;99.90;;;;;;477800;248;28755;-80
2023/06/24 04:03:19;;;;;;;5.27;4.77;;;13.80;99.90;;;;;;477788;248;28829;-80
2023/06/24 04:05:21;;;;;;;5.50;4.77;;;13.80;99.90;;;;;;477799;248;28891;-79
2023/06/24 04:07:27;;;;;;;5.53;5.00;;;13.80;99.90;;;;;;477768;249;29233;-79
2023/06/24 04:09:23;;;;;;;5.10;4.60;;;13.80;99.90;;;;;;477452;249;29385;-80
2023/06/24 04:11:24;;;;;;;5.63;5.10;;;13.90;99.90;;;;;;477802;248;28857;-79
2023/06/24 04:13:26;;;;;;;5.43;4.93;;;13.90;99.90;;;;;;477787;249;28510;-80
2023/06/24 04:15:27;;;;;;;5.60;5.10;;;13.80;99.90;;;;;;477794;248;28761;-79
2023/06/24 04:17:28;;;;;;;5.67;4.80;;;13.90;99.90;;;;;;477797;248;28787;-79
2023/06/24 04:19:29;;;;;;;5.83;5.20;;;14.00;99.90;;;;;;477803;248;28754;-80
2023/06/24 04:21:31;;;;;;;5.63;5.03;;;14.00;99.90;;;;;;477806;248;28423;-80
2023/06/24 04:23:32;;;;;;;5.50;5.00;;;14.00;99.90;;;;;;477801;248;28758;-80
2023/06/24 04:25:33;;;;;;;5.30;4.80;;;14.00;99.90;;;;;;477789;248;28837;-79
2023/06/24 04:27:34;;;;;;;5.87;5.30;;;14.10;99.90;;;;;;477771;248;28891;-80
2023/06/24 04:29:36;;;;;;;5.43;4.93;;;14.20;99.90;;;;;;477799;248;29287;-80
2023/06/24 04:31:37;;;;;;;5.17;4.67;;;14.20;99.90;;;;;;477803;248;29261;-79
2023/06/24 04:33:38;;;;;;;5.13;4.63;;;14.30;99.90;;;;;;477798;248;29293;-79
2023/06/24 04:35:39;;;;;;;5.00;4.50;;;14.30;99.90;;;;;;477805;248;29328;-80
2023/06/24 04:37:41;;;;;;;5.33;4.83;;;14.30;99.90;;;;;;477804;249;28755;-79
2023/06/24 04:39:42;;;;;;;4.90;4.47;;;14.30;99.90;;;;;;477808;248;28845;-79
2023/06/24 04:41:43;;;;;;;5.80;5.00;;;14.40;99.90;;;;;;477810;248;28830;-80
2023/06/24 04:43:45;;;;;;;5.37;4.87;;;14.40;99.90;;;;;;477768;247;28842;-80
2023/06/24 04:45:46;;;;;;;5.23;4.73;;;14.50;99.90;;;;;;477750;249;28749;-80
2023/06/24 04:47:47;;;;;;;5.50;5.00;;;14.50;99.90;;;;;;477777;249;28771;-80
2023/06/24 04:49:48;;;;;;;5.33;4.43;;;14.50;99.90;;;;;;477810;249;28749;-79
2023/06/24 04:51:49;;;;;;;6.50;4.97;;;14.60;99.90;;;;;;477826;248;28763;-80
2023/06/24 04:53:51;;;;;;;4.97;4.57;;;14.70;99.90;;;;;;477806;246;28774;-79
2023/06/24 04:55:52;;;;;;;5.37;4.87;;;14.70;99.90;;;;;;477794;248;29298;-79
2023/06/24 04:57:53;;;;;;;4.50;4.10;;;14.70;99.90;;;;;;477814;248;29227;-80
2023/06/24 04:59:54;;;;;;;5.00;4.50;;;14.70;99.90;;;;;;477796;248;29213;-79
2023/06/24 05:01:56;;;;;;;5.57;4.83;;;14.80;99.90;;;;;;477831;248;28747;-80
2023/06/24 05:03:57;;;;;;;4.90;4.50;;;14.80;99.90;;;;;;477824;248;28873;-80
2023/06/24 05:05:58;;;;;;;5.37;4.87;;;14.90;99.90;;;;;;477822;248;28746;-79
2023/06/24 05:07:59;;;;;;;6.60;5.07;;;14.90;99.90;;;;;;477806;248;28749;-80
2023/06/24 05:10:01;;;;;;;5.57;5.00;;;14.90;99.90;;;;;;477805;248;28750;-80
2023/06/24 05:12:02;;;;;;;5.77;5.17;;;15.00;99.90;;;;;;477800;249;28763;-80
2023/06/24 05:14:03;;;;;;;5.37;4.87;;;15.00;99.90;;;;;;477800;248;28777;-79
2023/06/24 05:16:04;;;;;;;6.80;4.87;;;15.10;99.90;;;;;;477773;248;28848;-79
2023/06/24 05:18:06;;;;;;;5.97;5.37;;;15.10;99.90;;;;;;477793;248;28760;-80
2023/06/24 05:20:07;;;;;;;5.60;5.10;;;15.20;99.90;;;;;;477788;248;29249;-80
2023/06/24 05:22:08;;;;;;;6.17;5.57;;;15.20;99.90;;;;;;477778;248;29233;-79
2023/06/24 05:24:09;;;;;;;5.27;4.77;;;15.20;99.90;;;;;;477807;248;29412;-79
2023/06/24 05:26:11;;;;;;;4.90;4.37;;;15.20;99.90;;;;;;477785;248;29209;-80
2023/06/24 05:28:12;;;;;;;5.03;4.53;;;15.20;99.90;;;;;;477768;249;28780;-80
2023/06/24 05:30:14;;;;;;;6.73;5.87;;;15.20;99.90;;;;;;477803;249;28847;-80
2023/06/24 05:32:17;;;;;;;5.60;5.00;;;15.30;99.90;;;;;;477790;248;28831;-80
2023/06/24 05:34:16;;;;;;;5.50;5.00;;;15.30;99.90;;;;;;477668;249;28739;-80
2023/06/24 05:36:17;;;;;;;7.50;4.70;;;15.40;99.90;;;;;;477794;248;28813;-80
2023/06/24 05:38:18;;;;;;;5.10;4.70;;;15.40;99.90;;;;;;477800;248;28753;-79
2023/06/24 05:40:19;;;;;;;5.20;4.70;;;15.50;99.90;;;;;;477816;248;28853;-80
2023/06/24 05:42:22;;;;;;;6.10;4.20;;;15.50;99.90;;;;;;477795;248;28746;-79
2023/06/24 05:44:23;;;;;;;5.70;4.90;;;15.60;99.90;;;;;;477699;248;28747;-80
2023/06/24 05:46:23;;;;;;;5.70;4.63;;;15.70;99.90;;;;;;477796;249;29250;-80
2023/06/24 05:48:24;;;;;;;5.70;5.10;;;15.80;99.90;;;;;;477797;248;29308;-80
2023/06/24 05:50:26;;;;;;;5.47;4.97;;;15.80;99.90;;;;;;477795;248;29240;-79
2023/06/24 05:52:28;;;;;;;5.50;5.00;;;15.90;99.90;;;;;;477808;248;28829;-80
2023/06/24 05:54:28;;;;;;;4.83;4.50;;;16.00;99.90;;;;;;477731;249;28830;-80
2023/06/24 05:56:30;;;;;;;5.83;4.80;;;16.10;99.90;;;;;;477791;248;28754;-80
2023/06/24 05:58:31;;;;;;;5.30;4.80;;;16.20;99.90;;;;;;477789;248;28761;-79
2023/06/24 06:00:32;;;;;;;4.90;4.50;;;16.30;99.90;;;;;;477754;248;28769;-79
2023/06/24 06:02:33;;;;;;;5.57;5.00;;;16.40;99.90;;;;;;477796;248;28774;-79
2023/06/24 06:04:34;;;;;;;4.60;4.20;;;16.50;99.90;;;;;;477796;248;28760;-79
2023/06/24 06:06:36;;;;;;;5.40;4.90;;;16.50;99.90;;;;;;477794;248;28762;-79
2023/06/24 06:08:37;;;;;;;5.30;4.67;;;16.60;99.90;;;;;;477804;248;28834;-80
2023/06/24 06:10:38;;;;;;;6.10;5.40;;;16.70;99.90;;;;;;477807;248;29252;-81
2023/06/24 06:12:39;;;;;;;7.27;5.20;;;16.70;99.90;;;;;;477798;248;29317;-79
2023/06/24 06:14:41;;;;;;;5.43;4.93;;;16.80;99.90;;;;;;477780;248;29213;-80
2023/06/24 06:16:42;;;;;;;5.00;4.20;;;16.90;99.90;;;;;;477779;248;29301;-79
2023/06/24 06:18:43;;;;;;;5.30;4.80;;;17.00;99.90;;;;;;477788;248;28862;-80
2023/06/24 06:20:44;;;;;;;5.00;4.50;;;17.00;99.90;;;;;;477780;248;28767;-80
2023/06/24 06:22:46;;;;;;;5.43;4.93;;;17.20;99.90;;;;;;477779;248;28840;-80
2023/06/24 06:24:47;;;;;;;4.90;4.50;;;17.20;99.90;;;;;;477787;248;28856;-80
2023/06/24 06:26:48;;;;;;;5.10;4.60;;;17.40;99.90;;;;;;477790;248;28781;-80
2023/06/24 06:28:50;;;;;;;4.50;4.17;;;17.40;99.90;;;;;;477776;248;28767;-80
2023/06/24 06:30:51;;;;;;;4.80;4.40;;;17.50;99.90;;;;;;477790;248;28830;-79
2023/06/24 06:32:52;;;;;;;5.20;4.70;;;17.60;99.90;;;;;;477785;248;28769;-79
2023/06/24 06:34:53;;;;;;;5.60;5.10;;;17.70;99.90;;;;;;477786;248;28746;-80
2023/06/24 06:36:55;;;;;;;5.27;4.77;;;17.80;99.90;;;;;;477807;248;29329;-80
2023/06/24 06:38:56;;;;;;;5.60;5.03;;;17.90;99.90;;;;;;477802;248;29281;-80
2023/06/24 06:40:57;;;;;;;5.20;4.70;;;18.00;99.90;;;;;;477800;248;29226;-80
2023/06/24 06:42:58;;;;;;;7.33;4.80;;;18.00;99.90;;;;;;477791;248;28745;-79
2023/06/24 06:45:00;;;;;;;5.13;4.67;;;18.10;99.90;;;;;;477771;248;28736;-79
2023/06/24 06:47:01;;;;;;;5.37;4.80;;;18.20;99.90;;;;;;477805;248;28860;-80
2023/06/24 06:49:02;;;;;;;5.47;4.97;;;18.30;99.90;;;;;;477791;248;28754;-80
2023/06/24 06:51:03;;;;;;;6.80;5.07;;;18.30;99.90;;;;;;477788;248;28759;-79
2023/06/24 06:53:05;;;;;;;5.00;4.60;;;18.50;99.90;;;;;;477806;248;28850;-80
2023/06/24 06:55:06;;;;;;;5.77;4.80;;;18.50;99.90;;;;;;477795;248;28856;-80
2023/06/24 06:57:07;;;;;;;4.97;4.57;;;18.60;99.90;;;;;;477794;248;28771;-80
2023/06/24 06:59:08;;;;;;;5.27;4.77;;;18.60;99.90;;;;;;477805;248;28853;-79
2023/06/24 07:01:10;;;;;;;5.30;4.80;;;18.80;99.90;;;;;;477824;248;29254;-79
2023/06/24 07:03:11;;;;;;;5.73;4.90;;;18.80;99.90;;;;;;477836;248;29238;-80
2023/06/24 07:05:12;;;;;;;5.80;4.80;;;18.90;99.90;;;;;;477828;248;29189;-80
2023/06/24 07:07:13;;;;;;;4.47;4.10;;;19.00;99.90;;;;;;477847;248;28794;-80
2023/06/24 07:09:15;;;;;;;7.10;4.97;;;19.10;99.90;;;;;;477821;248;28754;-80
2023/06/24 07:11:16;;;;;;;5.20;4.77;;;19.20;99.90;;;;;;477822;248;28822;-80
2023/06/24 07:13:17;;;;;;;4.83;4.33;;;19.40;99.90;;;;;;477819;248;28840;-80
2023/06/24 07:15:19;;;;;;;4.80;4.40;;;19.40;99.90;;;;;;477825;248;28865;-80
2023/06/24 07:17:20;;;;;;;7.00;5.17;;;19.40;99.90;;;;;;477811;248;28798;-80
2023/06/24 07:19:21;;;;;;;4.87;4.47;;;19.50;99.90;;;;;;477808;248;28763;-80
2023/06/24 07:21:22;;;;;;;5.13;4.63;;;19.50;99.90;;;;;;477824;248;28819;-79
2023/06/24 07:23:23;;;;;;;7.93;4.87;;;19.60;99.90;;;;;;477821;248;28793;-80
2023/06/24 07:25:26;;;;;;;5.10;4.67;;;19.70;99.90;;;;;;477762;248;29274;-80
2023/06/24 07:27:26;;;;;;;5.93;5.03;;;19.70;99.90;;;;;;477741;248;29347;-80
2023/06/24 07:29:27;;;;;;;6.23;5.13;;;19.80;99.90;;;;;;477807;248;29625;-80
2023/06/24 07:31:28;;;;;;;6.83;5.30;;;19.90;99.90;;;;;;477783;248;29294;-80
2023/06/24 07:33:30;;;;;;;4.93;4.43;;;20.00;99.90;;;;;;477777;248;28760;-80
2023/06/24 07:35:31;;;;;;;5.97;5.40;;;20.10;99.90;;;;;;477782;248;28746;-81
2023/06/24 07:37:32;;;;;;;5.10;4.53;;;20.10;99.90;;;;;;477970;248;28762;-80
2023/06/24 07:39:33;;;;;;;5.10;4.70;;;20.20;99.90;;;;;;478101;248;28851;-81
2023/06/24 07:41:35;;;;;;;6.10;5.50;;;20.20;99.90;;;;;;478088;248;28754;-81
2023/06/24 07:43:36;;;;;;;5.90;4.97;;;20.30;99.90;;;;;;477983;248;28763;-80
2023/06/24 07:45:37;;;;;;;5.93;4.67;;;20.50;99.90;;;;;;477920;248;28837;-80
2023/06/24 07:47:38;;;;;;;5.37;4.87;;;20.70;99.90;;;;;;477889;248;28829;-80
2023/06/24 07:49:40;;;;;;;5.17;4.63;;;20.70;99.90;;;;;;477839;248;28822;-80
2023/06/24 07:51:41;;;;;;;5.40;4.50;;;20.60;99.90;;;;;;477867;247;29214;-81
2023/06/24 07:53:42;;;;;;;4.60;4.23;;;20.60;99.90;;;;;;477834;248;29242;-80
2023/06/24 07:55:43;;;;;;;5.73;5.13;;;20.60;99.90;;;;;;477808;248;29293;-80
2023/06/24 07:57:45;;;;;;;5.17;4.67;;;20.60;99.90;;;;;;477815;248;28773;-80
2023/06/24 07:59:46;;;;;;;5.17;4.40;;;20.80;99.90;;;;;;477800;248;28857;-80
2023/06/24 08:01:47;;;;;;;6.17;4.67;;;20.90;99.90;;;;;;477793;248;28817;-79
2023/06/24 08:03:48;;;;;;;4.93;4.40;;;21.10;99.90;;;;;;477790;248;28756;-81
2023/06/24 08:05:50;;;;;;;6.00;4.90;;;21.10;99.90;;;;;;477774;248;28833;-80
2023/06/24 08:07:51;;;;;;;4.90;4.40;;;21.20;99.90;;;;;;477772;249;28754;-80
2023/06/24 08:09:52;;;;;;;5.70;5.00;;;21.30;99.90;;;;;;477774;248;28776;-80
2023/06/24 08:11:53;;;;;;;5.53;4.87;;;21.20;99.90;;;;;;477786;248;28758;-80
2023/06/24 08:13:55;;;;;;;4.93;4.53;;;21.20;99.90;;;;;;477768;248;28754;-80
2023/06/24 08:15:56;;;;;;;4.87;3.97;;;21.30;99.90;;;;;;477781;248;29193;-80
2023/06/24 08:17:57;;;;;;;5.00;4.60;;;21.30;99.90;;;;;;477781;248;29310;-80
2023/06/24 08:19:58;;;;;;;4.70;4.30;;;21.30;99.90;;;;;;477783;248;29207;-80
2023/06/24 08:22:00;;;;;;;5.37;4.87;;;21.40;99.90;;;;;;477784;248;28754;-80
2023/06/24 08:24:01;;;;;;;6.30;4.87;;;21.40;99.90;;;;;;477787;248;28747;-81
2023/06/24 08:26:02;;;;;;;5.10;4.60;;;21.60;99.90;;;;;;477768;248;28773;-80
2023/06/24 08:28:03;;;;;;;4.80;4.40;;;21.70;99.90;;;;;;477775;248;28837;-80
2023/06/24 08:35:02;;;;;;;4.87;4.37;;;22.10;99.90;;;;;;477774;249;28730;-81
2023/06/24 08:37:03;;;;;;;4.70;4.30;;;22.10;99.90;;;;;;477772;248;28745;-81
2023/06/24 08:39:04;;;;;;;4.80;4.40;;;22.10;99.90;;;;;;477780;248;28837;-81
2023/06/24 08:41:05;;;;;;;4.37;3.97;;;22.20;99.90;;;;;;477775;248;28830;-80
2023/06/24 08:43:07;;;;;;;6.63;4.43;;;22.30;99.90;;;;;;477778;248;29700;-80
2023/06/24 08:45:08;;;;;;;4.50;4.10;;;22.30;99.90;;;;;;477784;248;29228;-80
2023/06/24 08:47:09;;;;;;;5.00;4.50;;;22.50;99.90;;;;;;477781;248;29622;-81
2023/06/24 08:49:10;;;;;;;7.27;4.23;;;22.70;99.90;;;;;;477791;248;28743;-80
2023/06/24 08:51:12;;;;;;;5.23;4.67;;;22.90;99.90;;;;;;477784;248;28950;-81
2023/06/24 08:53:13;;;;;;;5.20;4.07;;;22.80;99.90;;;;;;477776;248;28810;-81
2023/06/24 08:55:14;;;;;;;6.03;3.87;;;22.80;99.90;;;;;;477787;248;28817;-81
2023/06/24 08:57:15;;;;;;;4.10;3.70;;;22.70;99.90;;;;;;477778;249;28849;-80
2023/06/24 08:59:20;;;;;;;4.60;4.20;;;22.90;99.90;;;;;;477779;248;28798;-81
2023/06/24 09:01:18;;;;;;;4.07;3.73;;;23.10;99.90;;;;;;477636;249;28861;-81
2023/06/24 09:03:19;;;;;;;3.80;3.30;;;23.20;99.90;;;;;;477785;248;28745;-81
2023/06/24 09:05:20;;;;;;;4.00;3.60;;;23.40;99.90;;;;;;477774;248;28833;-80
2023/06/24 09:07:22;;;;;;;4.83;4.00;;;23.40;99.90;;;;;;477783;249;29375;-81
2023/06/24 09:09:23;;;;;;;4.47;4.07;;;23.50;99.90;;;;;;477784;248;29295;-81
2023/06/24 09:11:24;;;;;;;5.00;4.50;;;23.50;99.90;;;;;;477771;248;29352;-81
2023/06/24 09:13:26;;;;;;;4.73;4.23;;;23.60;99.90;;;;;;477805;248;28806;-81
2023/06/24 09:15:27;;;;;;;4.00;3.47;;;23.70;99.90;;;;;;477791;248;28758;-81
2023/06/24 09:17:28;;;;;;;4.33;3.93;;;23.60;99.90;;;;;;477777;248;28875;-81
2023/06/24 09:19:29;;;;;;;4.87;3.90;;;23.50;99.90;;;;;;477781;248;28866;-81
2023/06/24 09:21:30;;;;;;;6.30;3.80;;;23.30;99.90;;;;;;477786;248;28829;-80
2023/06/24 09:23:32;;;;;;;5.00;3.87;;;23.00;99.60;;;;;;477785;248;28748;-80
2023/06/24 09:25:33;;;;;;;3.90;3.47;;;23.00;99.90;;;;;;477741;248;28765;-80
2023/06/24 09:27:34;;;;;;;4.20;3.80;;;23.10;99.60;;;;;;477781;248;28750;-81
2023/06/24 09:29:36;;;;;;;4.17;3.83;;;23.00;99.80;;;;;;477778;248;28806;-81
2023/06/24 09:31:37;;;;;;;4.13;3.73;;;23.00;99.90;;;;;;477756;248;29310;-81
2023/06/24 09:33:38;;;;;;;4.00;3.50;;;23.00;99.90;;;;;;477777;248;29295;-81
2023/06/24 09:35:39;;;;;;;4.33;4.03;;;23.00;99.90;;;;;;477772;248;29237;-81
2023/06/24 09:37:40;;;;;;;4.70;4.03;;;23.10;99.90;;;;;;477780;248;29289;-81
2023/06/24 09:39:42;;;;;;;4.00;3.40;;;23.40;99.90;;;;;;477775;248;28836;-80
2023/06/24 09:41:43;;;;;;;4.37;3.97;;;23.60;99.90;;;;;;477770;248;28834;-80
2023/06/24 09:43:44;;;;;;;3.93;3.60;;;23.70;99.90;;;;;;477768;248;28785;-81
2023/06/24 09:45:46;;;;;;;4.13;3.73;;;23.80;99.90;;;;;;477776;248;28754;-81
2023/06/24 09:47:47;;;;;;;4.20;3.80;;;23.90;99.90;;;;;;477775;248;28818;-80
2023/06/24 09:49:48;;;;;;;4.00;3.60;;;24.20;99.90;;;;;;477789;248;28735;-81
2023/06/24 09:51:49;;;;;;;5.80;3.70;;;24.40;99.90;;;;;;477774;249;28848;-80
2023/06/24 09:53:50;;;;;;;4.33;3.80;;;24.50;99.90;;;;;;477778;248;28769;-80
2023/06/24 09:55:52;;;;;;;4.70;3.97;;;24.40;99.50;;;;;;477773;248;29215;-81
2023/06/24 09:57:53;;;;;;;4.20;3.80;;;24.30;99.50;;;;;;477768;248;29329;-81
2023/06/24 09:59:54;;;;;;;3.90;3.57;;;24.20;99.90;;;;;;477790;248;29296;-81
2023/06/24 10:01:55;;;;;;;4.50;4.10;;;24.30;99.90;;;;;;477771;248;29311;-81
2023/06/24 10:03:57;;;;;;;3.67;3.37;;;24.40;98.80;;;;;;477779;248;28765;-81
2023/06/24 10:05:58;;;;;;;4.63;4.23;;;24.30;98.40;;;;;;477645;249;28810;-80
2023/06/24 10:07:59;;;;;;;4.60;3.50;;;24.20;99.50;;;;;;477767;248;28846;-81
2023/06/24 10:10:00;;;;;;;4.63;4.20;;;24.20;98.70;;;;;;477752;249;28817;-81
2023/06/24 10:12:02;;;;;;;10.20;3.73;;;24.20;98.70;;;;;;477775;248;28763;-80
2023/06/24 10:14:03;;;;;;;41.43;6.67;;;24.30;98.80;;;;;;477784;248;28762;-80
2023/06/24 10:16:04;;;;;;;5.63;4.07;;;24.40;98.80;;;;;;477794;248;28783;-81
2023/06/24 10:18:05;;;;;;;4.27;3.97;;;24.70;98.60;;;;;;477798;248;28905;-80
2023/06/24 10:20:07;;;;;;;3.83;3.37;;;24.60;97.90;;;;;;477765;248;29289;-80
2023/06/24 10:22:09;;;;;;;5.70;3.60;;;24.40;97.60;;;;;;477784;249;29706;-81
2023/06/24 10:24:09;;;;;;;12.10;4.10;;;24.30;98.50;;;;;;477737;249;29281;-80
2023/06/24 10:26:11;;;;;;;5.60;3.17;;;24.40;98.50;;;;;;477750;249;28830;-80
2023/06/24 10:28:12;;;;;;;5.97;4.30;;;24.30;98.90;;;;;;477773;248;28924;-80
2023/06/24 10:30:13;;;;;;;4.37;3.90;;;24.20;99.00;;;;;;477762;248;28760;-81
2023/06/24 10:32:14;;;;;;;4.60;4.00;;;24.10;97.80;;;;;;477748;248;28805;-81
2023/06/24 10:34:15;;;;;;;6.20;4.17;;;24.10;98.90;;;;;;477779;248;28856;-81